sensor_id;sensor_type;location;lat;lon;timestamp;pressure;altitude;pressure_sealevel;temperature;humidity
44044;BME280;29709;52.396;16.796;2023-05-01T00:03:12;102356.45;;;7.61;54.97
44044;BME280;29709;52.396;16.796;2023-05-01T00:06:25;102355.66;;;7.59;55.82
44044;BME280;29709;52.396;16.796;2023-05-01T00:09:39;102356.64;;;7.58;55.00
44044;BME280;29709;52.396;16.796;2023-05-01T00:12:53;102355.88;;;7.56;54.99
44044;BME280;29709;52.396;16.796;2023-05-01T00:16:10;102351.30;;;7.57;54.88
44044;BME280;29709;52.396;16.796;2023-05-01T00:19:24;102348.03;;;7.51;55.15
44044;BME280;29709;52.396;16.796;2023-05-01T00:22:37;102348.12;;;7.37;53.99
44044;BME280;29709;52.396;16.796;2023-05-01T00:25:50;102341.78;;;7.37;54.10
44044;BME280;29709;52.396;16.796;2023-05-01T00:29:03;102331.94;;;7.34;55.90
44044;BME280;29709;52.396;16.796;2023-05-01T00:32:16;102333.24;;;7.29;54.55
44044;BME280;29709;52.396;16.796;2023-05-01T00:35:30;102324.82;;;7.19;54.63
44044;BME280;29709;52.396;16.796;2023-05-01T00:38:43;102337.08;;;7.13;55.07
44044;BME280;29709;52.396;16.796;2023-05-01T00:41:58;102328.88;;;7.13;55.71
44044;BME280;29709;52.396;16.796;2023-05-01T00:45:11;102318.37;;;7.07;55.88
44044;BME280;29709;52.396;16.796;2023-05-01T00:48:24;102328.42;;;6.94;55.00
44044;BME280;29709;52.396;16.796;2023-05-01T00:51:39;102325.67;;;6.81;57.67
44044;BME280;29709;52.396;16.796;2023-05-01T00:54:54;102331.15;;;6.81;58.05
44044;BME280;29709;52.396;16.796;2023-05-01T00:58:09;102332.32;;;6.77;56.27
44044;BME280;29709;52.396;16.796;2023-05-01T01:01:24;102327.30;;;6.71;57.07
44044;BME280;29709;52.396;16.796;2023-05-01T01:04:39;102324.79;;;6.68;56.36
44044;BME280;29709;52.396;16.796;2023-05-01T01:11:24;102321.48;;;6.63;56.59
44044;BME280;29709;52.396;16.796;2023-05-01T01:28:31;102314.05;;;6.65;56.36
44044;BME280;29709;52.396;16.796;2023-05-01T01:35:11;102303.23;;;6.63;56.96
44044;BME280;29709;52.396;16.796;2023-05-01T01:38:33;102302.58;;;6.60;55.23
44044;BME280;29709;52.396;16.796;2023-05-01T01:41:50;102306.82;;;6.51;56.32
44044;BME280;29709;52.396;16.796;2023-05-01T01:45:14;102306.41;;;6.57;56.19
44044;BME280;29709;52.396;16.796;2023-05-01T01:48:35;102306.84;;;6.64;57.73
44044;BME280;29709;52.396;16.796;2023-05-01T01:51:50;102306.84;;;6.64;55.65
44044;BME280;29709;52.396;16.796;2023-05-01T01:55:08;102306.84;;;6.64;58.31
44044;BME280;29709;52.396;16.796;2023-05-01T01:58:24;102292.75;;;6.57;58.35
44044;BME280;29709;52.396;16.796;2023-05-01T02:01:39;102295.66;;;6.54;57.21
44044;BME280;29709;52.396;16.796;2023-05-01T02:04:54;102302.45;;;6.49;57.28
44044;BME280;29709;52.396;16.796;2023-05-01T02:08:12;102290.76;;;6.47;58.33
44044;BME280;29709;52.396;16.796;2023-05-01T02:11:29;102296.85;;;6.38;58.01
44044;BME280;29709;52.396;16.796;2023-05-01T02:14:44;102297.58;;;6.27;59.26
44044;BME280;29709;52.396;16.796;2023-05-01T02:18:01;102291.64;;;6.20;59.21
44044;BME280;29709;52.396;16.796;2023-05-01T02:21:17;102285.63;;;6.15;60.01
44044;BME280;29709;52.396;16.796;2023-05-01T02:24:32;102291.28;;;6.12;60.23
44044;BME280;29709;52.396;16.796;2023-05-01T02:28:01;102284.58;;;6.03;59.51
44044;BME280;29709;52.396;16.796;2023-05-01T02:31:14;102282.28;;;5.97;59.92
44044;BME280;29709;52.396;16.796;2023-05-01T02:34:27;102281.32;;;5.84;59.21
44044;BME280;29709;52.396;16.796;2023-05-01T02:37:41;102281.61;;;5.79;59.73
44044;BME280;29709;52.396;16.796;2023-05-01T02:40:56;102281.13;;;5.73;60.67
44044;BME280;29709;52.396;16.796;2023-05-01T02:44:10;102274.13;;;5.69;60.49
44044;BME280;29709;52.396;16.796;2023-05-01T02:47:26;102273.47;;;5.65;59.08
44044;BME280;29709;52.396;16.796;2023-05-01T02:50:42;102273.30;;;5.54;60.58
44044;BME280;29709;52.396;16.796;2023-05-01T02:53:56;102269.98;;;5.49;60.81
44044;BME280;29709;52.396;16.796;2023-05-01T02:57:11;102265.11;;;5.40;61.59
44044;BME280;29709;52.396;16.796;2023-05-01T03:00:27;102268.43;;;5.31;62.16
44044;BME280;29709;52.396;16.796;2023-05-01T03:03:42;102263.29;;;5.26;62.53
44044;BME280;29709;52.396;16.796;2023-05-01T03:06:55;102263.66;;;5.20;62.34
44044;BME280;29709;52.396;16.796;2023-05-01T03:10:10;102256.87;;;5.13;62.77
44044;BME280;29709;52.396;16.796;2023-05-01T03:13:23;102249.08;;;5.07;62.86
44044;BME280;29709;52.396;16.796;2023-05-01T03:16:36;102249.08;;;5.07;59.59
44044;BME280;29709;52.396;16.796;2023-05-01T03:19:50;102246.94;;;4.98;63.30
44044;BME280;29709;52.396;16.796;2023-05-01T03:23:03;102242.16;;;4.87;63.96
44044;BME280;29709;52.396;16.796;2023-05-01T03:26:17;102239.64;;;4.84;63.62
44044;BME280;29709;52.396;16.796;2023-05-01T03:29:31;102248.02;;;4.81;63.67
44044;BME280;29709;52.396;16.796;2023-05-01T03:32:45;102238.09;;;4.80;63.27
44044;BME280;29709;52.396;16.796;2023-05-01T03:36:00;102237.69;;;4.72;64.18
44044;BME280;29709;52.396;16.796;2023-05-01T03:39:15;102230.95;;;4.63;64.19
44044;BME280;29709;52.396;16.796;2023-05-01T03:42:29;102229.88;;;4.66;64.82
44044;BME280;29709;52.396;16.796;2023-05-01T03:45:42;102226.09;;;4.68;64.12
44044;BME280;29709;52.396;16.796;2023-05-01T03:48:55;102228.14;;;4.64;64.30
44044;BME280;29709;52.396;16.796;2023-05-01T03:52:09;102233.77;;;4.61;64.15
44044;BME280;29709;52.396;16.796;2023-05-01T03:55:26;102232.91;;;4.61;64.15
44044;BME280;29709;52.396;16.796;2023-05-01T03:58:39;102232.51;;;4.67;62.35
44044;BME280;29709;52.396;16.796;2023-05-01T04:01:52;102243.04;;;4.73;66.01
44044;BME280;29709;52.396;16.796;2023-05-01T04:05:07;102239.54;;;4.71;65.73
44044;BME280;29709;52.396;16.796;2023-05-01T04:08:21;102242.16;;;4.73;64.16
44044;BME280;29709;52.396;16.796;2023-05-01T04:11:34;102237.58;;;4.73;65.56
44044;BME280;29709;52.396;16.796;2023-05-01T04:14:48;102243.71;;;4.77;65.70
44044;BME280;29709;52.396;16.796;2023-05-01T04:18:01;102240.52;;;4.84;64.15
44044;BME280;29709;52.396;16.796;2023-05-01T04:21:14;102235.94;;;4.85;64.45
44044;BME280;29709;52.396;16.796;2023-05-01T04:24:30;102233.62;;;4.93;65.15
44044;BME280;29709;52.396;16.796;2023-05-01T04:27:44;102231.18;;;5.03;66.03
44044;BME280;29709;52.396;16.796;2023-05-01T04:30:59;102236.82;;;5.14;64.62
44044;BME280;29709;52.396;16.796;2023-05-01T04:34:12;102236.59;;;5.31;62.56
44044;BME280;29709;52.396;16.796;2023-05-01T04:37:26;102233.55;;;5.50;63.71
44044;BME280;29709;52.396;16.796;2023-05-01T04:40:39;102234.09;;;5.69;62.14
44044;BME280;29709;52.396;16.796;2023-05-01T04:43:52;102229.27;;;5.87;60.78
44044;BME280;29709;52.396;16.796;2023-05-01T04:47:05;102237.02;;;6.07;61.82
44044;BME280;29709;52.396;16.796;2023-05-01T04:50:19;102236.06;;;6.21;60.69
44044;BME280;29709;52.396;16.796;2023-05-01T04:53:33;102241.67;;;6.45;60.52
44044;BME280;29709;52.396;16.796;2023-05-01T04:56:46;102234.93;;;6.63;60.67
44044;BME280;29709;52.396;16.796;2023-05-01T04:59:59;102229.57;;;6.87;61.07
44044;BME280;29709;52.396;16.796;2023-05-01T05:03:13;102229.37;;;7.03;59.89
44044;BME280;29709;52.396;16.796;2023-05-01T05:06:30;102225.51;;;7.18;59.92
44044;BME280;29709;52.396;16.796;2023-05-01T05:09:43;102228.45;;;7.41;59.40
44044;BME280;29709;52.396;16.796;2023-05-01T05:12:56;102229.59;;;7.62;58.87
44044;BME280;29709;52.396;16.796;2023-05-01T05:16:11;102231.16;;;7.77;58.87
44044;BME280;29709;52.396;16.796;2023-05-01T05:19:24;102232.39;;;7.97;59.11
44044;BME280;29709;52.396;16.796;2023-05-01T05:22:38;102228.55;;;8.24;58.67
44044;BME280;29709;52.396;16.796;2023-05-01T05:25:51;102224.95;;;8.58;58.42
44044;BME280;29709;52.396;16.796;2023-05-01T05:29:04;102215.91;;;9.03;57.44
44044;BME280;29709;52.396;16.796;2023-05-01T05:32:17;102223.01;;;9.61;56.78
44044;BME280;29709;52.396;16.796;2023-05-01T05:35:31;102210.23;;;10.15;55.56
44044;BME280;29709;52.396;16.796;2023-05-01T05:38:44;102213.65;;;10.60;55.13
44044;BME280;29709;52.396;16.796;2023-05-01T05:41:57;102209.30;;;11.09;54.65
44044;BME280;29709;52.396;16.796;2023-05-01T05:45:10;102211.51;;;11.55;53.55
44044;BME280;29709;52.396;16.796;2023-05-01T05:48:24;102211.05;;;11.80;52.91
44044;BME280;29709;52.396;16.796;2023-05-01T05:51:37;102210.32;;;11.98;51.71
44044;BME280;29709;52.396;16.796;2023-05-01T05:54:50;102207.16;;;12.12;51.40
44044;BME280;29709;52.396;16.796;2023-05-01T05:58:04;102201.77;;;12.39;50.54
44044;BME280;29709;52.396;16.796;2023-05-01T06:01:17;102199.00;;;12.59;50.97
44044;BME280;29709;52.396;16.796;2023-05-01T06:04:30;102207.69;;;12.83;50.36
44044;BME280;29709;52.396;16.796;2023-05-01T06:07:44;102201.99;;;12.94;49.28
44044;BME280;29709;52.396;16.796;2023-05-01T06:10:58;102204.42;;;13.07;48.82
44044;BME280;29709;52.396;16.796;2023-05-01T06:14:11;102207.60;;;13.49;49.37
44044;BME280;29709;52.396;16.796;2023-05-01T06:17:24;102197.65;;;13.84;48.38
44044;BME280;29709;52.396;16.796;2023-05-01T06:20:38;102190.87;;;13.78;47.64
44044;BME280;29709;52.396;16.796;2023-05-01T06:23:51;102196.73;;;14.11;47.60
44044;BME280;29709;52.396;16.796;2023-05-01T06:27:04;102195.48;;;14.23;45.78
44044;BME280;29709;52.396;16.796;2023-05-01T06:30:18;102187.18;;;14.23;45.60
44044;BME280;29709;52.396;16.796;2023-05-01T06:33:32;102184.58;;;14.22;43.56
44044;BME280;29709;52.396;16.796;2023-05-01T06:36:46;102188.29;;;14.30;45.00
44044;BME280;29709;52.396;16.796;2023-05-01T06:39:59;102185.51;;;14.48;44.01
44044;BME280;29709;52.396;16.796;2023-05-01T06:43:12;102180.73;;;14.76;43.96
44044;BME280;29709;52.396;16.796;2023-05-01T06:46:25;102177.16;;;14.84;42.99
44044;BME280;29709;52.396;16.796;2023-05-01T06:49:41;102172.20;;;14.95;43.53
44044;BME280;29709;52.396;16.796;2023-05-01T06:52:55;102177.11;;;15.01;42.64
44044;BME280;29709;52.396;16.796;2023-05-01T06:56:12;102164.15;;;15.10;42.59
44044;BME280;29709;52.396;16.796;2023-05-01T06:59:25;102163.38;;;15.26;41.75
44044;BME280;29709;52.396;16.796;2023-05-01T07:02:38;102165.93;;;15.19;41.06
44044;BME280;29709;52.396;16.796;2023-05-01T07:05:55;102161.83;;;15.31;41.09
44044;BME280;29709;52.396;16.796;2023-05-01T07:09:08;102169.52;;;15.46;41.32
44044;BME280;29709;52.396;16.796;2023-05-01T07:12:23;102160.52;;;15.52;40.94
44044;BME280;29709;52.396;16.796;2023-05-01T07:15:36;102160.34;;;15.45;40.12
44044;BME280;29709;52.396;16.796;2023-05-01T07:18:49;102159.93;;;15.66;40.41
44044;BME280;29709;52.396;16.796;2023-05-01T07:22:03;102150.97;;;15.88;40.50
44044;BME280;29709;52.396;16.796;2023-05-01T07:25:16;102152.39;;;16.09;40.48
44044;BME280;29709;52.396;16.796;2023-05-01T07:28:30;102154.48;;;16.07;39.53
44044;BME280;29709;52.396;16.796;2023-05-01T07:31:44;102156.05;;;16.18;39.91
44044;BME280;29709;52.396;16.796;2023-05-01T07:35:02;102143.02;;;16.34;39.40
44044;BME280;29709;52.396;16.796;2023-05-01T07:38:16;102135.94;;;16.40;38.94
44044;BME280;29709;52.396;16.796;2023-05-01T07:41:30;102144.62;;;16.37;38.74
44044;BME280;29709;52.396;16.796;2023-05-01T07:44:43;102136.45;;;16.43;38.89
44044;BME280;29709;52.396;16.796;2023-05-01T07:47:56;102138.35;;;16.59;38.85
44044;BME280;29709;52.396;16.796;2023-05-01T07:51:10;102142.49;;;16.63;38.06
44044;BME280;29709;52.396;16.796;2023-05-01T07:54:23;102133.83;;;16.74;39.34
44044;BME280;29709;52.396;16.796;2023-05-01T07:57:36;102130.16;;;16.90;38.58
44044;BME280;29709;52.396;16.796;2023-05-01T08:00:50;102128.59;;;16.88;38.35
44044;BME280;29709;52.396;16.796;2023-05-01T08:04:04;102126.16;;;16.93;38.39
44044;BME280;29709;52.396;16.796;2023-05-01T08:07:18;102122.31;;;17.02;37.79
44044;BME280;29709;52.396;16.796;2023-05-01T08:10:31;102119.67;;;17.09;38.45
44044;BME280;29709;52.396;16.796;2023-05-01T08:13:44;102114.83;;;17.11;36.64
44044;BME280;29709;52.396;16.796;2023-05-01T08:16:58;102118.29;;;17.13;36.83
44044;BME280;29709;52.396;16.796;2023-05-01T08:20:12;102109.19;;;17.27;36.27
44044;BME280;29709;52.396;16.796;2023-05-01T08:23:25;102104.95;;;17.39;37.28
44044;BME280;29709;52.396;16.796;2023-05-01T08:26:45;102114.13;;;17.48;37.44
44044;BME280;29709;52.396;16.796;2023-05-01T08:30:00;102108.97;;;17.68;37.59
44044;BME280;29709;52.396;16.796;2023-05-01T08:33:13;102108.16;;;17.90;36.66
44044;BME280;29709;52.396;16.796;2023-05-01T08:36:26;102105.75;;;17.87;35.51
44044;BME280;29709;52.396;16.796;2023-05-01T08:39:40;102101.97;;;18.03;36.66
44044;BME280;29709;52.396;16.796;2023-05-01T08:42:53;102087.80;;;18.12;36.62
44044;BME280;29709;52.396;16.796;2023-05-01T08:46:08;102096.02;;;18.29;35.90
44044;BME280;29709;52.396;16.796;2023-05-01T08:49:24;102090.33;;;18.22;35.69
44044;BME280;29709;52.396;16.796;2023-05-01T08:52:40;102089.60;;;18.28;35.34
44044;BME280;29709;52.396;16.796;2023-05-01T08:55:57;102081.37;;;18.35;34.36
44044;BME280;29709;52.396;16.796;2023-05-01T08:59:13;102085.42;;;18.47;35.52
44044;BME280;29709;52.396;16.796;2023-05-01T09:02:27;102084.51;;;18.32;33.42
44044;BME280;29709;52.396;16.796;2023-05-01T09:05:42;102076.07;;;18.25;33.96
44044;BME280;29709;52.396;16.796;2023-05-01T09:08:55;102070.83;;;18.45;34.64
44044;BME280;29709;52.396;16.796;2023-05-01T09:12:20;102063.94;;;18.56;35.09
44044;BME280;29709;52.396;16.796;2023-05-01T09:15:32;102058.45;;;18.62;34.71
44044;BME280;29709;52.396;16.796;2023-05-01T09:18:46;102069.98;;;18.59;34.08
44044;BME280;29709;52.396;16.796;2023-05-01T09:21:59;102064.97;;;18.55;33.47
44044;BME280;29709;52.396;16.796;2023-05-01T09:25:13;102051.30;;;18.68;33.95
44044;BME280;29709;52.396;16.796;2023-05-01T09:31:54;102050.23;;;18.84;33.57
44044;BME280;29709;52.396;16.796;2023-05-01T09:35:13;102048.57;;;18.60;32.69
44044;BME280;29709;52.396;16.796;2023-05-01T09:38:26;102060.95;;;18.57;32.84
44044;BME280;29709;52.396;16.796;2023-05-01T09:41:50;102049.16;;;18.55;32.80
44044;BME280;29709;52.396;16.796;2023-05-01T09:45:13;102036.87;;;18.64;31.39
44044;BME280;29709;52.396;16.796;2023-05-01T09:48:26;102033.22;;;18.93;32.78
44044;BME280;29709;52.396;16.796;2023-05-01T09:51:40;102032.27;;;19.01;32.73
44044;BME280;29709;52.396;16.796;2023-05-01T09:58:25;102029.19;;;19.11;32.67
44044;BME280;29709;52.396;16.796;2023-05-01T10:01:43;102023.91;;;19.01;32.58
44044;BME280;29709;52.396;16.796;2023-05-01T10:04:58;102022.75;;;18.95;32.82
44044;BME280;29709;52.396;16.796;2023-05-01T10:08:12;102029.01;;;18.97;33.74
44044;BME280;29709;52.396;16.796;2023-05-01T10:11:29;102016.00;;;19.19;33.03
44044;BME280;29709;52.396;16.796;2023-05-01T10:14:52;102016.46;;;19.23;32.86
44044;BME280;29709;52.396;16.796;2023-05-01T10:18:09;102010.46;;;19.41;33.56
44044;BME280;29709;52.396;16.796;2023-05-01T10:21:24;102000.95;;;19.71;33.52
44044;BME280;29709;52.396;16.796;2023-05-01T10:24:37;101983.95;;;19.66;32.40
44044;BME280;29709;52.396;16.796;2023-05-01T10:27:52;101988.41;;;19.46;31.68
44044;BME280;29709;52.396;16.796;2023-05-01T10:31:06;101981.66;;;19.55;31.77
44044;BME280;29709;52.396;16.796;2023-05-01T10:34:21;101975.85;;;19.71;32.51
44044;BME280;29709;52.396;16.796;2023-05-01T10:37:46;101975.66;;;20.01;32.70
44044;BME280;29709;52.396;16.796;2023-05-01T10:41:00;101970.97;;;20.01;31.18
44044;BME280;29709;52.396;16.796;2023-05-01T10:44:21;101967.70;;;19.98;31.79
44044;BME280;29709;52.396;16.796;2023-05-01T10:47:43;101970.56;;;20.04;31.16
44044;BME280;29709;52.396;16.796;2023-05-01T10:54:28;101956.34;;;19.99;31.37
44044;BME280;29709;52.396;16.796;2023-05-01T10:57:43;101947.66;;;19.87;30.30
44044;BME280;29709;52.396;16.796;2023-05-01T11:18:04;101924.97;;;20.25;30.75
44044;BME280;29709;52.396;16.796;2023-05-01T11:24:45;101918.77;;;20.30;28.71
44044;BME280;29709;52.396;16.796;2023-05-01T11:28:02;101906.99;;;20.34;29.74
44044;BME280;29709;52.396;16.796;2023-05-01T11:31:16;101919.04;;;20.41;29.93
44044;BME280;29709;52.396;16.796;2023-05-01T11:34:34;101917.32;;;20.40;28.56
44044;BME280;29709;52.396;16.796;2023-05-01T11:37:50;101905.59;;;20.45;28.86
44044;BME280;29709;52.396;16.796;2023-05-01T11:41:03;101905.45;;;20.32;28.26
44044;BME280;29709;52.396;16.796;2023-05-01T11:44:17;101901.24;;;20.42;29.11
44044;BME280;29709;52.396;16.796;2023-05-01T11:47:33;101888.49;;;20.68;27.62
44044;BME280;29709;52.396;16.796;2023-05-01T11:50:47;101879.94;;;20.83;29.43
44044;BME280;29709;52.396;16.796;2023-05-01T11:54:10;101879.73;;;20.78;29.08
44044;BME280;29709;52.396;16.796;2023-05-01T11:57:25;101879.90;;;20.69;29.15
44044;BME280;29709;52.396;16.796;2023-05-01T12:00:41;101880.72;;;20.63;29.55
44044;BME280;29709;52.396;16.796;2023-05-01T12:03:55;101872.56;;;20.62;29.72
44044;BME280;29709;52.396;16.796;2023-05-01T12:10:34;101845.34;;;20.77;29.80
44044;BME280;29709;52.396;16.796;2023-05-01T12:13:48;101848.28;;;20.62;30.19
44044;BME280;29709;52.396;16.796;2023-05-01T12:17:02;101847.05;;;20.78;29.75
44044;BME280;29709;52.396;16.796;2023-05-01T12:20:16;101837.38;;;20.74;28.44
44044;BME280;29709;52.396;16.796;2023-05-01T12:23:34;101831.82;;;20.94;29.51
44044;BME280;29709;52.396;16.796;2023-05-01T12:26:58;101830.79;;;21.21;29.63
44044;BME280;29709;52.396;16.796;2023-05-01T12:30:12;101827.83;;;21.43;29.04
44044;BME280;29709;52.396;16.796;2023-05-01T12:33:25;101819.02;;;21.39;27.95
44044;BME280;29709;52.396;16.796;2023-05-01T12:36:38;101798.75;;;21.24;27.71
44044;BME280;29709;52.396;16.796;2023-05-01T12:39:51;101804.34;;;21.11;28.54
44044;BME280;29709;52.396;16.796;2023-05-01T12:43:04;101796.37;;;21.14;28.32
44044;BME280;29709;52.396;16.796;2023-05-01T12:46:18;101797.23;;;21.15;29.34
44044;BME280;29709;52.396;16.796;2023-05-01T12:49:32;101778.30;;;21.03;27.23
44044;BME280;29709;52.396;16.796;2023-05-01T12:52:48;101782.82;;;21.04;28.04
44044;BME280;29709;52.396;16.796;2023-05-01T12:56:02;101784.77;;;21.24;28.08
44044;BME280;29709;52.396;16.796;2023-05-01T12:59:22;101769.73;;;21.05;26.48
44044;BME280;29709;52.396;16.796;2023-05-01T13:02:36;101764.12;;;21.12;27.35
44044;BME280;29709;52.396;16.796;2023-05-01T13:05:55;101764.56;;;21.09;27.18
44044;BME280;29709;52.396;16.796;2023-05-01T13:09:09;101751.87;;;21.13;27.98
44044;BME280;29709;52.396;16.796;2023-05-01T13:12:23;101754.28;;;21.29;27.29
44044;BME280;29709;52.396;16.796;2023-05-01T13:15:38;101748.42;;;21.24;27.00
44044;BME280;29709;52.396;16.796;2023-05-01T13:18:52;101760.68;;;21.23;27.21
44044;BME280;29709;52.396;16.796;2023-05-01T13:22:05;101750.77;;;20.94;26.61
44044;BME280;29709;52.396;16.796;2023-05-01T13:25:18;101735.96;;;20.87;27.49
44044;BME280;29709;52.396;16.796;2023-05-01T13:28:43;101728.42;;;20.94;28.01
44044;BME280;29709;52.396;16.796;2023-05-01T13:32:02;101725.87;;;21.06;28.14
44044;BME280;29709;52.396;16.796;2023-05-01T13:35:23;101724.16;;;21.31;28.93
44044;BME280;29709;52.396;16.796;2023-05-01T13:38:44;101711.89;;;21.32;28.37
44044;BME280;29709;52.396;16.796;2023-05-01T13:41:58;101710.62;;;21.28;28.49
44044;BME280;29709;52.396;16.796;2023-05-01T13:45:17;101712.33;;;21.29;29.32
44044;BME280;29709;52.396;16.796;2023-05-01T13:48:32;101701.34;;;21.21;28.75
44044;BME280;29709;52.396;16.796;2023-05-01T13:51:46;101695.74;;;21.21;29.21
44044;BME280;29709;52.396;16.796;2023-05-01T13:55:01;101697.02;;;21.25;28.78
44044;BME280;29709;52.396;16.796;2023-05-01T13:58:17;101694.66;;;21.42;28.86
44044;BME280;29709;52.396;16.796;2023-05-01T14:01:30;101684.34;;;21.42;28.62
44044;BME280;29709;52.396;16.796;2023-05-01T14:04:44;101680.91;;;21.40;27.56
44044;BME280;29709;52.396;16.796;2023-05-01T14:07:58;101678.97;;;21.14;27.67
44044;BME280;29709;52.396;16.796;2023-05-01T14:11:13;101679.65;;;20.96;28.12
44044;BME280;29709;52.396;16.796;2023-05-01T14:14:26;101667.39;;;20.91;28.08
44044;BME280;29709;52.396;16.796;2023-05-01T14:17:39;101673.40;;;20.81;28.08
44044;BME280;29709;52.396;16.796;2023-05-01T14:20:53;101668.27;;;20.85;28.44
44044;BME280;29709;52.396;16.796;2023-05-01T14:24:07;101672.98;;;20.84;28.77
44044;BME280;29709;52.396;16.796;2023-05-01T14:27:21;101672.77;;;20.86;28.89
44044;BME280;29709;52.396;16.796;2023-05-01T14:30:36;101661.58;;;20.79;28.03
44044;BME280;29709;52.396;16.796;2023-05-01T14:33:56;101659.00;;;20.71;28.26
44044;BME280;29709;52.396;16.796;2023-05-01T14:37:10;101657.92;;;20.72;29.00
44044;BME280;29709;52.396;16.796;2023-05-01T14:40:27;101647.83;;;20.71;29.22
44044;BME280;29709;52.396;16.796;2023-05-01T14:43:40;101637.06;;;20.94;29.21
44044;BME280;29709;52.396;16.796;2023-05-01T14:46:56;101634.91;;;21.10;27.98
44044;BME280;29709;52.396;16.796;2023-05-01T14:50:11;101620.71;;;21.04;28.13
44044;BME280;29709;52.396;16.796;2023-05-01T14:53:30;101622.87;;;21.02;28.18
44044;BME280;29709;52.396;16.796;2023-05-01T14:56:46;101620.08;;;21.09;28.17
44044;BME280;29709;52.396;16.796;2023-05-01T14:59:59;101608.48;;;21.06;27.98
44044;BME280;29709;52.396;16.796;2023-05-01T15:03:13;101608.48;;;21.06;27.90
44044;BME280;29709;52.396;16.796;2023-05-01T15:06:26;101598.16;;;21.06;28.17
44044;BME280;29709;52.396;16.796;2023-05-01T15:09:40;101591.30;;;20.89;27.58
44044;BME280;29709;52.396;16.796;2023-05-01T15:12:54;101587.67;;;20.68;28.60
44044;BME280;29709;52.396;16.796;2023-05-01T15:16:08;101591.55;;;20.54;28.61
44044;BME280;29709;52.396;16.796;2023-05-01T15:19:22;101590.88;;;20.52;29.24
44044;BME280;29709;52.396;16.796;2023-05-01T15:22:35;101581.46;;;20.53;28.60
44044;BME280;29709;52.396;16.796;2023-05-01T15:25:49;101574.79;;;20.48;28.68
44044;BME280;29709;52.396;16.796;2023-05-01T15:29:02;101572.42;;;20.51;28.50
44044;BME280;29709;52.396;16.796;2023-05-01T15:32:15;101575.85;;;20.66;28.74
44044;BME280;29709;52.396;16.796;2023-05-01T15:35:29;101565.94;;;20.84;28.30
44044;BME280;29709;52.396;16.796;2023-05-01T15:38:42;101558.85;;;20.88;26.93
44044;BME280;29709;52.396;16.796;2023-05-01T15:41:55;101556.91;;;20.88;26.75
44044;BME280;29709;52.396;16.796;2023-05-01T15:45:09;101551.73;;;20.92;26.62
44044;BME280;29709;52.396;16.796;2023-05-01T15:48:23;101545.96;;;20.87;26.72
44044;BME280;29709;52.396;16.796;2023-05-01T15:51:36;101543.80;;;20.82;27.26
44044;BME280;29709;52.396;16.796;2023-05-01T15:54:52;101543.83;;;20.75;27.00
44044;BME280;29709;52.396;16.796;2023-05-01T15:58:08;101539.74;;;20.78;27.76
44044;BME280;29709;52.396;16.796;2023-05-01T16:01:21;101534.55;;;20.88;27.66
44044;BME280;29709;52.396;16.796;2023-05-01T16:04:34;101535.61;;;20.94;27.41
44044;BME280;29709;52.396;16.796;2023-05-01T16:07:53;101531.55;;;20.90;27.15
44044;BME280;29709;52.396;16.796;2023-05-01T16:11:11;101530.91;;;20.88;27.07
44044;BME280;29709;52.396;16.796;2023-05-01T16:14:27;101535.83;;;20.92;27.23
44044;BME280;29709;52.396;16.796;2023-05-01T16:17:42;101534.78;;;20.87;27.20
44044;BME280;29709;52.396;16.796;2023-05-01T16:20:56;101535.64;;;20.81;26.93
44044;BME280;29709;52.396;16.796;2023-05-01T16:24:10;101524.51;;;20.74;27.83
44044;BME280;29709;52.396;16.796;2023-05-01T16:27:24;101521.07;;;20.65;27.72
44044;BME280;29709;52.396;16.796;2023-05-01T16:30:44;101524.30;;;20.49;27.70
44044;BME280;29709;52.396;16.796;2023-05-01T16:33:57;101528.55;;;20.32;27.44
44044;BME280;29709;52.396;16.796;2023-05-01T16:37:12;101519.99;;;20.27;28.05
44044;BME280;29709;52.396;16.796;2023-05-01T16:40:29;101518.27;;;20.19;28.08
44044;BME280;29709;52.396;16.796;2023-05-01T16:43:44;101518.04;;;20.07;28.46
44044;BME280;29709;52.396;16.796;2023-05-01T16:46:58;101514.39;;;19.94;28.50
44044;BME280;29709;52.396;16.796;2023-05-01T16:50:12;101513.74;;;19.92;29.14
44044;BME280;29709;52.396;16.796;2023-05-01T16:53:27;101522.30;;;19.90;29.24
44044;BME280;29709;52.396;16.796;2023-05-01T16:56:40;101516.95;;;19.88;29.42
44044;BME280;29709;52.396;16.796;2023-05-01T16:59:53;101521.45;;;19.89;29.22
44044;BME280;29709;52.396;16.796;2023-05-01T17:03:07;101518.45;;;19.84;28.76
44044;BME280;29709;52.396;16.796;2023-05-01T17:06:20;101509.66;;;19.81;29.53
44044;BME280;29709;52.396;16.796;2023-05-01T17:09:33;101506.65;;;19.82;29.96
44044;BME280;29709;52.396;16.796;2023-05-01T17:12:46;101502.77;;;19.77;30.17
44044;BME280;29709;52.396;16.796;2023-05-01T17:16:00;101509.20;;;19.77;29.80
44044;BME280;29709;52.396;16.796;2023-05-01T17:19:13;101509.39;;;19.69;29.57
44044;BME280;29709;52.396;16.796;2023-05-01T17:22:26;101502.53;;;19.65;29.84
44044;BME280;29709;52.396;16.796;2023-05-01T17:25:39;101508.97;;;19.66;29.76
44044;BME280;29709;52.396;16.796;2023-05-01T17:28:53;101504.90;;;19.62;30.04
44044;BME280;29709;52.396;16.796;2023-05-01T17:32:06;101500.79;;;19.57;30.07
44044;BME280;29709;52.396;16.796;2023-05-01T17:35:19;101506.34;;;19.51;29.88
44044;BME280;29709;52.396;16.796;2023-05-01T17:38:33;101502.23;;;19.47;30.47
44044;BME280;29709;52.396;16.796;2023-05-01T17:41:50;101500.94;;;19.43;30.72
44044;BME280;29709;52.396;16.796;2023-05-01T17:45:06;101498.98;;;19.37;30.84